Aérodrome :
LOGIN :

S'inscrire | Disclaimer

   EN    FR    IT 

 










Légende :    VFR   VFR Marginal   IFR   IFR Intensif   IFR Très Intensif
Visi : 
Plafond : 
>= 8 km
>= 3000ft
5 à 8 km
1000 à 3000 ft
1500m à 5 km
500 à 1000 ft
800 à 1500m
200 à 500 ft
< 800m
< 200 ft
Symboles :   Orages  Brouillard  Fortes neiges  Fortes précipitations  Vent > 20 kt
SIGMETs :   Divers  Orages  Givrage  Turbulence  Onde Orograph.  Cendres Volcan.







- Altitude de l'aérodrome : 117 ft
- Code IATA : NWI
- Voir les cartes d'approche


EGSH - Norwich

DERNIER METAR :
  • 200720Z 21010KT 180V240 4000 -RADZ BR BKN003 07/07 Q1014 TEMPO 6000 NSW

METARs EXPIRÉS :
  • 200650Z 21010KT 5000 -RA BKN004 07/06 Q1014 NOSIG
  • 200620Z 21008KT 6000 -RA BKN003 OVC007 06/06 Q1015
  • 200550Z 20008KT 6000 -RA BKN004 OVC016 06/05 Q1015 RERA
  • 200520Z AUTO 21008KT 7000 RA BKN005/// OVC017/// 05/05 Q1016 RERA
  • 200450Z AUTO 20009KT 5000 +RA SCT007/// BKN014/// BKN018/// 05/05 Q1016

TAF TAF EGSH
Valide du 20 à 06h jusqu'au 20 à 15h UTC


200502Z 2006/2015 23012KT 9999 SCT020
TEMPO 2006/2015 7000 RA BKN009
PROB30
TEMPO 2006/2013 4000 RADZ BKN004
PROB40
TEMPO 2008/2015 25018G28KT
ATIS : +44 1603 420 640
Pas de NOTAMs connus pour ce terrain.



MET'MAP, la Météo Aéronautique d'un coup d'oeil ! - Copyright ORBIFLY Décembre 2007 - Disclaimer

ORBIFLY MET'MAP TEAM :

Programmation & Développement : Alexandra Zaïnal
Conception & Développement : Baudouin d'Aumeries
Co-Programmation & Développement : Marc-Olivier Méhu
Soutien technique & logistique : Manuel Goepfert

Contact : metmap@orbifly.com




SOURCES & CREDITS :

   NOAA